createdAt,value
2023-03-07T00:02:26.344Z,1.70
2023-03-07T00:04:52.992Z,1.60
2023-03-07T00:07:19.621Z,1.70
2023-03-07T00:09:46.209Z,1.70
2023-03-07T00:12:12.820Z,1.70
2023-03-07T00:14:39.495Z,1.70
2023-03-07T00:17:06.601Z,1.70
2023-03-07T00:19:33.375Z,1.70
2023-03-07T00:21:59.988Z,1.70
2023-03-07T00:24:26.608Z,1.70
2023-03-07T00:26:53.240Z,1.70
2023-03-07T00:29:19.864Z,1.60
2023-03-07T00:31:48.588Z,1.60
2023-03-07T00:34:15.252Z,1.60
2023-03-07T00:36:41.910Z,1.60
2023-03-07T00:39:08.594Z,1.60
2023-03-07T00:41:35.358Z,1.70
2023-03-07T00:44:02.394Z,1.70
2023-03-07T00:46:29.311Z,1.70
2023-03-07T00:48:56.303Z,1.70
2023-03-07T00:51:24.054Z,1.70
2023-03-07T00:53:51.509Z,1.70
2023-03-07T00:56:25.012Z,1.60
2023-03-07T00:58:52.060Z,1.60
2023-03-07T01:01:21.959Z,1.60
2023-03-07T01:03:49.646Z,1.60
2023-03-07T01:06:18.968Z,1.60
2023-03-07T01:08:46.272Z,1.60
2023-03-07T01:11:15.166Z,1.60
2023-03-07T01:13:42.542Z,1.70
2023-03-07T01:16:13.522Z,1.70
2023-03-07T01:18:42.676Z,1.70
2023-03-07T01:21:14.116Z,1.70
2023-03-07T01:23:41.171Z,1.70
2023-03-07T01:26:18.015Z,1.70
2023-03-07T01:28:45.410Z,1.70
2023-03-07T01:31:12.471Z,1.70
2023-03-07T01:33:40.637Z,1.70
2023-03-07T01:36:25.430Z,1.70
2023-03-07T01:38:58.839Z,1.70
2023-03-07T01:41:29.546Z,1.70
2023-03-07T01:43:56.480Z,1.80
2023-03-07T01:46:37.366Z,1.80
2023-03-07T01:49:11.293Z,1.80
2023-03-07T01:51:43.255Z,1.80
2023-03-07T01:54:11.620Z,1.80
2023-03-07T01:56:39.291Z,1.80
2023-03-07T01:59:06.845Z,1.80
2023-03-07T02:01:34.232Z,1.90
2023-03-07T02:04:11.238Z,1.90
2023-03-07T02:06:39.286Z,2.00
2023-03-07T02:09:13.230Z,2.00
2023-03-07T02:11:44.797Z,2.10
2023-03-07T02:14:11.680Z,2.10
2023-03-07T02:16:39.605Z,2.10
2023-03-07T02:19:34.329Z,2.10
2023-03-07T02:22:13.702Z,2.00
2023-03-07T02:24:51.520Z,2.00
2023-03-07T02:27:18.795Z,2.10
2023-03-07T02:29:45.797Z,2.10
2023-03-07T02:32:14.485Z,2.10
2023-03-07T02:34:41.363Z,2.20
2023-03-07T02:37:28.950Z,2.20
2023-03-07T02:39:58.505Z,2.20
2023-03-07T02:42:28.898Z,2.20
2023-03-07T02:45:06.886Z,2.30
2023-03-07T02:47:35.380Z,2.30
2023-03-07T02:50:02.126Z,2.30
2023-03-07T02:52:29.748Z,2.40
2023-03-07T02:54:58.289Z,2.40
2023-03-07T02:57:28.957Z,2.40
2023-03-07T02:59:55.654Z,2.50
2023-03-07T03:02:22.686Z,2.50
2023-03-07T03:04:49.393Z,2.50
2023-03-07T03:07:16.092Z,2.60
2023-03-07T03:09:42.782Z,2.60
2023-03-07T03:12:09.494Z,2.60
2023-03-07T03:14:36.734Z,2.60
2023-03-07T03:17:03.811Z,2.70
2023-03-07T03:19:30.484Z,2.70
2023-03-07T03:21:57.889Z,2.70
2023-03-07T03:24:26.358Z,2.70
2023-03-07T03:26:57.687Z,2.70
2023-03-07T03:29:26.405Z,2.70
2023-03-07T03:31:56.673Z,2.70
2023-03-07T03:34:23.714Z,2.70
2023-03-07T03:36:51.547Z,2.80
2023-03-07T03:39:18.706Z,2.80
2023-03-07T03:41:49.650Z,2.80
2023-03-07T03:44:17.636Z,2.80
2023-03-07T03:46:44.354Z,2.80
2023-03-07T03:49:16.526Z,2.80
2023-03-07T03:51:44.885Z,2.70
2023-03-07T03:54:11.676Z,2.80
2023-03-07T03:56:38.558Z,2.80
2023-03-07T03:59:05.241Z,2.80
2023-03-07T04:01:31.948Z,2.80
2023-03-07T04:03:59.152Z,2.80
2023-03-07T04:06:28.434Z,2.80
2023-03-07T04:08:56.737Z,2.80
2023-03-07T04:11:24.354Z,2.80
2023-03-07T04:13:52.095Z,2.80
2023-03-07T04:16:22.199Z,2.80
2023-03-07T04:18:50.864Z,2.90
2023-03-07T04:21:18.236Z,2.90
2023-03-07T04:23:45.857Z,2.90
2023-03-07T04:26:12.558Z,2.90
2023-03-07T04:28:49.397Z,2.90
2023-03-07T04:31:23.130Z,2.90
2023-03-07T04:33:53.689Z,2.90
2023-03-07T04:36:21.706Z,2.80
2023-03-07T04:38:49.649Z,2.80
2023-03-07T04:41:22.971Z,2.80
2023-03-07T04:43:53.773Z,2.80
2023-03-07T04:46:22.417Z,2.70
2023-03-07T04:48:49.367Z,2.70
2023-03-07T04:51:16.625Z,2.70
2023-03-07T04:53:44.117Z,2.70
2023-03-07T04:56:11.438Z,2.70
2023-03-07T04:58:39.958Z,2.70
2023-03-07T05:01:06.852Z,2.70
2023-03-07T05:03:35.142Z,2.70
2023-03-07T05:06:05.544Z,2.70
2023-03-07T05:08:32.743Z,2.60
2023-03-07T05:10:59.999Z,2.60
2023-03-07T05:13:26.891Z,2.60
2023-03-07T05:15:54.984Z,2.60
2023-03-07T05:18:23.674Z,2.60
2023-03-07T05:20:51.632Z,2.60
2023-03-07T05:23:19.390Z,2.60
2023-03-07T05:25:48.355Z,2.60
2023-03-07T05:28:16.827Z,2.60
2023-03-07T05:30:47.415Z,2.60
2023-03-07T05:33:14.951Z,2.60
2023-03-07T05:35:42.771Z,2.60
2023-03-07T05:38:11.611Z,2.60
2023-03-07T05:40:38.830Z,2.60
2023-03-07T05:43:06.456Z,2.60
2023-03-07T05:45:34.058Z,2.60
2023-03-07T05:48:01.578Z,2.50
2023-03-07T05:50:30.517Z,2.50
2023-03-07T05:52:57.646Z,2.50
2023-03-07T05:55:27.234Z,2.50
2023-03-07T05:57:54.470Z,2.40
2023-03-07T06:00:21.663Z,2.40
2023-03-07T06:02:54.226Z,2.40
2023-03-07T06:05:21.047Z,2.40
2023-03-07T06:07:48.965Z,2.40
2023-03-07T06:10:16.750Z,2.40
2023-03-07T06:12:43.501Z,2.40
2023-03-07T06:15:10.496Z,2.40
2023-03-07T06:17:37.945Z,2.40
2023-03-07T06:20:05.931Z,2.40
2023-03-07T06:22:34.435Z,2.40
2023-03-07T06:25:02.436Z,2.40
2023-03-07T06:27:35.658Z,2.40
2023-03-07T06:30:05.440Z,2.40
2023-03-07T06:32:32.705Z,2.40
2023-03-07T06:34:59.990Z,2.50
2023-03-07T06:37:27.473Z,2.50
2023-03-07T06:39:57.960Z,2.50
2023-03-07T06:42:24.669Z,2.50
2023-03-07T06:44:51.975Z,2.50
2023-03-07T06:47:19.341Z,2.50
2023-03-07T06:49:46.087Z,2.50
2023-03-07T06:52:12.813Z,2.50
2023-03-07T06:54:39.493Z,2.50
2023-03-07T06:57:07.085Z,2.50
2023-03-07T06:59:33.763Z,2.50
2023-03-07T07:02:04.566Z,2.50
2023-03-07T07:04:33.588Z,2.50
2023-03-07T07:07:00.415Z,2.50
2023-03-07T07:09:28.909Z,2.50
2023-03-07T07:11:55.729Z,2.50
2023-03-07T07:14:23.235Z,2.60
2023-03-07T07:16:49.938Z,2.50
2023-03-07T07:19:16.852Z,2.60
2023-03-07T07:21:43.696Z,2.60
2023-03-07T07:24:12.808Z,2.60
2023-03-07T07:26:39.659Z,2.60
2023-03-07T07:29:06.685Z,2.60
2023-03-07T07:31:33.436Z,2.60
2023-03-07T07:34:00.737Z,2.70
2023-03-07T07:36:30.153Z,2.70
2023-03-07T07:38:57.782Z,2.70
2023-03-07T07:41:24.715Z,2.70
2023-03-07T07:43:54.341Z,2.70
2023-03-07T07:46:33.145Z,2.70
2023-03-07T07:49:00.040Z,2.70
2023-03-07T07:51:27.670Z,2.70
2023-03-07T07:53:54.328Z,2.70
2023-03-07T07:56:21.212Z,2.80
2023-03-07T07:58:47.931Z,2.70
2023-03-07T08:01:17.303Z,2.60
2023-03-07T08:03:44.232Z,2.60
2023-03-07T08:06:11.870Z,2.60
2023-03-07T08:08:38.559Z,2.70
2023-03-07T08:11:05.631Z,2.70
2023-03-07T08:13:32.390Z,2.70
2023-03-07T08:15:59.269Z,2.70
2023-03-07T08:18:26.050Z,2.70
2023-03-07T08:20:52.715Z,2.70
2023-03-07T08:23:19.328Z,2.60
2023-03-07T08:25:46.196Z,2.60
2023-03-07T08:28:12.808Z,2.60
2023-03-07T08:30:39.472Z,2.60
2023-03-07T08:33:07.249Z,2.70
2023-03-07T08:35:33.998Z,2.60
2023-03-07T08:38:00.932Z,2.60
2023-03-07T08:40:29.457Z,2.60
2023-03-07T08:42:56.146Z,2.60
2023-03-07T08:45:23.788Z,2.60
2023-03-07T08:47:54.821Z,2.60
2023-03-07T08:50:22.969Z,2.60
2023-03-07T08:52:49.813Z,2.60
2023-03-07T08:55:16.822Z,2.40
2023-03-07T08:57:45.383Z,2.30
2023-03-07T09:00:12.472Z,2.20
2023-03-07T09:02:39.497Z,2.10
2023-03-07T09:05:06.726Z,2.00
2023-03-07T09:07:33.832Z,1.90
2023-03-07T09:10:00.478Z,1.80
2023-03-07T09:12:27.212Z,1.70
2023-03-07T09:14:55.033Z,1.60
2023-03-07T09:17:21.657Z,1.50
2023-03-07T09:19:50.413Z,1.40
2023-03-07T09:22:17.098Z,1.30
2023-03-07T09:24:43.912Z,1.30
2023-03-07T09:27:11.386Z,1.20
2023-03-07T09:29:38.113Z,1.20
2023-03-07T09:32:04.975Z,1.20
2023-03-07T09:34:31.894Z,1.20
2023-03-07T09:36:58.754Z,1.20
2023-03-07T09:39:25.637Z,1.20
2023-03-07T09:42:25.618Z,1.20
2023-03-07T09:45:21.113Z,1.20
2023-03-07T09:47:57.278Z,1.10
2023-03-07T09:50:39.606Z,1.10
2023-03-07T09:53:12.966Z,1.10
2023-03-07T09:55:40.510Z,1.20
2023-03-07T09:58:16.119Z,1.10
2023-03-07T10:00:43.313Z,1.20
2023-03-07T10:03:33.013Z,1.00
2023-03-07T10:06:07.064Z,1.20
2023-03-07T10:08:34.321Z,1.30
2023-03-07T10:11:23.185Z,1.40
2023-03-07T10:14:02.996Z,1.40
2023-03-07T10:16:49.029Z,1.50
2023-03-07T10:19:36.831Z,1.40
2023-03-07T10:22:27.348Z,1.50
2023-03-07T10:25:06.149Z,1.60
2023-03-07T10:27:33.406Z,1.70
2023-03-07T10:30:06.442Z,1.70
2023-03-07T10:32:39.183Z,1.70
2023-03-07T10:35:12.088Z,1.60
2023-03-07T10:37:45.649Z,1.70
2023-03-07T10:40:42.115Z,1.80
2023-03-07T10:43:22.863Z,1.80
2023-03-07T10:45:49.550Z,1.80
2023-03-07T10:48:20.282Z,1.90
2023-03-07T10:51:05.471Z,1.90
2023-03-07T10:53:36.061Z,1.90
2023-03-07T10:56:15.049Z,2.00
2023-03-07T10:59:03.314Z,2.00
2023-03-07T11:01:32.063Z,1.90
2023-03-07T11:04:05.002Z,1.80
2023-03-07T11:06:40.625Z,1.80
2023-03-07T11:09:10.963Z,1.70
2023-03-07T11:11:38.044Z,1.70
2023-03-07T11:14:15.017Z,1.80
2023-03-07T11:16:48.863Z,1.80
2023-03-07T11:19:35.966Z,1.80
2023-03-07T11:22:15.949Z,1.90
2023-03-07T11:25:07.808Z,1.80
2023-03-07T11:27:36.337Z,1.80
2023-03-07T11:30:21.010Z,1.70
2023-03-07T11:33:34.155Z,1.80
2023-03-07T11:36:27.297Z,1.80
2023-03-07T11:38:56.973Z,1.70
2023-03-07T11:41:37.185Z,1.60
2023-03-07T11:44:25.851Z,1.60
2023-03-07T11:47:19.431Z,1.60
2023-03-07T11:50:13.830Z,1.60
2023-03-07T11:53:02.420Z,1.50
2023-03-07T11:55:47.911Z,1.50
2023-03-07T11:58:44.095Z,1.50
2023-03-07T12:01:29.614Z,1.40
2023-03-07T12:04:14.444Z,1.40
2023-03-07T12:07:11.953Z,1.40
2023-03-07T12:09:45.099Z,1.40
2023-03-07T12:12:29.865Z,1.40
2023-03-07T12:15:15.446Z,1.40
2023-03-07T12:17:48.428Z,1.40
2023-03-07T12:20:30.759Z,1.50
2023-03-07T12:23:23.226Z,1.50
2023-03-07T12:25:53.994Z,1.50
2023-03-07T12:28:27.644Z,1.30
2023-03-07T12:31:11.223Z,1.30
2023-03-07T12:33:53.298Z,1.30
2023-03-07T12:36:42.107Z,1.30
2023-03-07T12:39:19.977Z,1.20
2023-03-07T12:41:52.617Z,1.20
2023-03-07T12:44:49.041Z,1.20
2023-03-07T12:47:41.795Z,1.20
2023-03-07T12:50:13.023Z,1.30
2023-03-07T12:52:42.080Z,1.20
2023-03-07T12:55:36.213Z,1.30
2023-03-07T12:58:42.112Z,1.30
2023-03-07T13:01:27.794Z,1.30
2023-03-07T13:04:13.407Z,1.30
2023-03-07T13:06:42.179Z,1.20
2023-03-07T13:09:19.947Z,1.30
2023-03-07T13:12:23.058Z,1.20
2023-03-07T13:15:23.172Z,1.40
2023-03-07T13:17:49.784Z,1.40
2023-03-07T13:20:17.400Z,1.40
2023-03-07T13:22:44.813Z,1.40
2023-03-07T13:25:24.843Z,1.40
2023-03-07T13:27:58.331Z,1.30
2023-03-07T13:30:27.282Z,1.20
2023-03-07T13:32:56.782Z,1.20
2023-03-07T13:35:32.143Z,1.20
2023-03-07T13:38:03.820Z,1.20
2023-03-07T13:40:46.264Z,1.20
2023-03-07T13:43:21.737Z,1.20
2023-03-07T13:46:02.622Z,1.20
2023-03-07T13:48:32.000Z,1.10
2023-03-07T13:51:01.730Z,1.10
2023-03-07T13:53:33.566Z,1.00
2023-03-07T13:56:09.490Z,1.20
2023-03-07T13:59:10.968Z,1.10
2023-03-07T14:01:45.529Z,1.10
2023-03-07T14:04:36.775Z,1.10
2023-03-07T14:07:31.692Z,1.10
2023-03-07T14:10:21.410Z,1.10
2023-03-07T14:13:10.679Z,1.00
2023-03-07T14:16:08.181Z,1.10
2023-03-07T14:18:51.267Z,1.20
2023-03-07T14:21:26.678Z,1.20
2023-03-07T14:24:36.552Z,1.10
2023-03-07T14:27:05.432Z,1.20
2023-03-07T14:29:32.377Z,1.30
2023-03-07T14:32:00.861Z,1.20
2023-03-07T14:34:29.398Z,1.10
2023-03-07T14:37:06.594Z,1.20
2023-03-07T14:39:55.047Z,1.20
2023-03-07T14:42:33.643Z,1.00
2023-03-07T14:45:13.632Z,1.10
2023-03-07T14:47:52.274Z,1.10
2023-03-07T14:50:26.413Z,1.10
2023-03-07T14:53:02.233Z,1.10
2023-03-07T14:55:38.552Z,1.10
2023-03-07T14:58:05.881Z,1.20
2023-03-07T15:00:34.562Z,1.20
2023-03-07T15:03:14.248Z,1.20
2023-03-07T15:05:54.786Z,1.10
2023-03-07T15:08:30.285Z,1.20
2023-03-07T15:11:30.097Z,1.20
2023-03-07T15:14:07.167Z,1.20
2023-03-07T15:16:37.725Z,1.10
2023-03-07T15:19:09.262Z,1.10
2023-03-07T15:21:44.254Z,1.10
2023-03-07T15:24:27.766Z,1.10
2023-03-07T15:26:55.591Z,1.10
2023-03-07T15:29:24.790Z,1.10
2023-03-07T15:32:03.882Z,1.10
2023-03-07T15:34:33.563Z,1.10
2023-03-07T15:37:21.375Z,1.10
2023-03-07T15:40:11.535Z,1.10
2023-03-07T15:42:49.639Z,1.00
2023-03-07T15:45:33.216Z,1.00
2023-03-07T15:48:10.424Z,0.90
2023-03-07T15:50:37.715Z,1.00
2023-03-07T15:53:10.180Z,0.90
2023-03-07T15:55:39.294Z,1.00
2023-03-07T15:58:13.700Z,1.00
2023-03-07T16:00:41.981Z,0.90
2023-03-07T16:03:31.460Z,1.00
2023-03-07T16:06:00.612Z,1.00
2023-03-07T16:08:27.691Z,1.00
2023-03-07T16:10:57.760Z,1.00
2023-03-07T16:13:32.034Z,0.90
2023-03-07T16:16:04.451Z,0.90
2023-03-07T16:18:32.525Z,0.90
2023-03-07T16:20:59.424Z,1.00
2023-03-07T16:23:30.721Z,0.90
2023-03-07T16:26:01.608Z,0.90
2023-03-07T16:28:28.591Z,0.90
2023-03-07T16:30:55.598Z,0.80
2023-03-07T16:33:22.244Z,0.90
2023-03-07T16:35:48.982Z,0.90
2023-03-07T16:38:15.622Z,0.90
2023-03-07T16:40:44.674Z,0.90
2023-03-07T16:43:40.806Z,0.90
2023-03-07T16:46:14.982Z,0.80
2023-03-07T16:48:42.677Z,0.70
2023-03-07T16:51:18.182Z,0.70
2023-03-07T16:53:45.718Z,0.70
2023-03-07T16:56:32.446Z,0.70
2023-03-07T16:59:01.211Z,0.70
2023-03-07T17:01:28.042Z,0.70
2023-03-07T17:03:57.465Z,0.70
2023-03-07T17:06:37.119Z,0.60
2023-03-07T17:09:06.764Z,0.60
2023-03-07T17:11:33.866Z,0.50
2023-03-07T17:14:04.044Z,0.60
2023-03-07T17:16:31.942Z,0.50
2023-03-07T17:18:58.882Z,0.60
2023-03-07T17:21:25.480Z,0.50
2023-03-07T17:23:52.153Z,0.60
2023-03-07T17:26:29.503Z,0.60
2023-03-07T17:28:59.377Z,0.60
2023-03-07T17:31:26.248Z,0.70
2023-03-07T17:33:52.962Z,0.70
2023-03-07T17:36:19.754Z,0.70
2023-03-07T17:38:47.347Z,0.80
2023-03-07T17:41:14.076Z,0.80
2023-03-07T17:43:40.698Z,0.70
2023-03-07T17:46:11.898Z,0.60
2023-03-07T17:48:38.782Z,0.60
2023-03-07T17:51:10.261Z,0.60
2023-03-07T17:53:37.686Z,0.60
2023-03-07T17:56:15.826Z,0.50
2023-03-07T17:58:43.609Z,0.50
2023-03-07T18:01:11.849Z,0.50
2023-03-07T18:03:38.823Z,0.40
2023-03-07T18:06:05.865Z,0.30
2023-03-07T18:08:32.941Z,0.30
2023-03-07T18:11:03.955Z,0.30
2023-03-07T18:13:30.603Z,0.30
2023-03-07T18:15:58.453Z,0.30
2023-03-07T18:18:25.690Z,0.30
2023-03-07T18:21:00.353Z,0.30
2023-03-07T18:23:27.344Z,0.30
2023-03-07T18:26:03.154Z,0.30
2023-03-07T18:28:30.377Z,0.40
2023-03-07T18:30:58.729Z,0.40
2023-03-07T18:33:25.801Z,0.30
2023-03-07T18:35:52.463Z,0.30
2023-03-07T18:38:19.146Z,0.30
2023-03-07T18:40:46.127Z,0.30
2023-03-07T18:43:13.535Z,0.30
2023-03-07T18:45:44.634Z,0.30
2023-03-07T18:48:11.821Z,0.30
2023-03-07T18:50:38.518Z,0.30
2023-03-07T18:53:05.791Z,0.30
2023-03-07T18:55:34.360Z,0.30
2023-03-07T18:58:01.265Z,0.30
2023-03-07T19:00:28.050Z,0.30
2023-03-07T19:02:54.673Z,0.30
2023-03-07T19:05:21.444Z,0.40
2023-03-07T19:07:48.129Z,0.40
2023-03-07T19:10:14.848Z,0.30
2023-03-07T19:12:41.554Z,0.30
2023-03-07T19:15:08.476Z,0.30
2023-03-07T19:17:39.005Z,0.40
2023-03-07T19:20:06.057Z,0.40
2023-03-07T19:22:33.414Z,0.40
2023-03-07T19:25:00.157Z,0.40
2023-03-07T19:27:27.883Z,0.40
2023-03-07T19:29:54.704Z,0.40
2023-03-07T19:32:21.933Z,0.40
2023-03-07T19:34:50.532Z,0.40
2023-03-07T19:37:17.175Z,0.40
2023-03-07T19:39:43.828Z,0.40
2023-03-07T19:42:10.864Z,0.40
2023-03-07T19:44:37.570Z,0.40
2023-03-07T19:47:04.334Z,0.40
2023-03-07T19:49:31.069Z,0.40
2023-03-07T19:51:57.711Z,0.40
2023-03-07T19:54:24.395Z,0.40
2023-03-07T19:56:51.798Z,0.40
2023-03-07T19:59:19.020Z,0.40
2023-03-07T20:01:45.832Z,0.30
2023-03-07T20:04:14.147Z,0.20
2023-03-07T20:06:44.423Z,0.20
2023-03-07T20:09:13.526Z,0.20
2023-03-07T20:11:43.200Z,0.20
2023-03-07T20:14:11.276Z,0.20
2023-03-07T20:16:38.249Z,0.20
2023-03-07T20:19:08.578Z,0.20
2023-03-07T20:21:36.436Z,0.20
2023-03-07T20:24:04.464Z,0.20
2023-03-07T20:26:33.609Z,0.20
2023-03-07T20:29:02.379Z,0.20
2023-03-07T20:31:29.649Z,0.10
2023-03-07T20:33:58.726Z,0.10
2023-03-07T20:36:31.444Z,0.10
2023-03-07T20:39:04.140Z,0.10
2023-03-07T20:41:32.349Z,0.20
2023-03-07T20:44:01.205Z,0.20
2023-03-07T20:46:28.540Z,0.10
2023-03-07T20:48:56.191Z,0.20
2023-03-07T20:51:25.625Z,0.20
2023-03-07T20:54:00.989Z,0.10
2023-03-07T20:56:30.155Z,0.10
2023-03-07T20:58:57.765Z,0.10
2023-03-07T21:01:27.420Z,0.20
2023-03-07T21:03:54.994Z,0.10
2023-03-07T21:06:22.060Z,0.20
2023-03-07T21:08:48.778Z,0.10
2023-03-07T21:11:17.962Z,0.10
2023-03-07T21:13:46.500Z,0.10
2023-03-07T21:16:18.735Z,0.20
2023-03-07T21:18:46.272Z,0.20
2023-03-07T21:21:15.183Z,0.20
2023-03-07T21:23:42.140Z,0.20
2023-03-07T21:26:22.086Z,0.20
2023-03-07T21:28:52.524Z,0.20
2023-03-07T21:31:22.471Z,0.10
2023-03-07T21:33:53.131Z,0.10
2023-03-07T21:36:24.302Z,0.10
2023-03-07T21:38:51.381Z,0.10
2023-03-07T21:41:19.177Z,0.10
2023-03-07T21:43:46.290Z,0.10
2023-03-07T21:46:14.065Z,0.10
2023-03-07T21:48:41.150Z,0.10
2023-03-07T21:51:08.806Z,0.10
2023-03-07T21:53:38.490Z,0.10
2023-03-07T21:56:10.682Z,0.20
2023-03-07T21:58:38.645Z,0.20
2023-03-07T22:01:17.260Z,0.10
2023-03-07T22:03:44.577Z,0.20
2023-03-07T22:06:13.511Z,0.20
2023-03-07T22:08:41.096Z,0.20
2023-03-07T22:11:10.125Z,0.20
2023-03-07T22:13:38.397Z,0.10
2023-03-07T22:16:07.741Z,0.20
2023-03-07T22:18:35.060Z,0.20
2023-03-07T22:21:09.905Z,0.20
2023-03-07T22:23:36.636Z,0.20
2023-03-07T22:26:07.905Z,0.20
2023-03-07T22:28:34.586Z,0.20
2023-03-07T22:31:03.647Z,0.20
2023-03-07T22:33:30.369Z,0.20
2023-03-07T22:35:58.863Z,0.20
2023-03-07T22:38:25.848Z,0.20
2023-03-07T22:40:52.782Z,0.20
2023-03-07T22:43:19.584Z,0.30
2023-03-07T22:45:50.821Z,0.20
2023-03-07T22:48:17.706Z,0.10
2023-03-07T22:50:44.324Z,0.20
2023-03-07T22:53:10.978Z,0.20
2023-03-07T22:55:42.566Z,0.10
2023-03-07T22:58:10.206Z,0.20
2023-03-07T23:00:38.918Z,0.20
2023-03-07T23:03:05.599Z,0.20
2023-03-07T23:05:33.305Z,0.20
2023-03-07T23:08:01.253Z,0.20
2023-03-07T23:10:29.343Z,0.20
2023-03-07T23:12:56.406Z,0.20
2023-03-07T23:15:23.906Z,0.20
2023-03-07T23:17:51.458Z,0.20
2023-03-07T23:20:25.277Z,0.20
2023-03-07T23:22:53.040Z,0.20
2023-03-07T23:25:20.012Z,0.20
2023-03-07T23:27:46.671Z,0.20
2023-03-07T23:30:13.719Z,0.20
2023-03-07T23:32:40.381Z,0.10
2023-03-07T23:35:07.450Z,0.10
2023-03-07T23:37:34.102Z,0.10
2023-03-07T23:40:01.486Z,0.10
2023-03-07T23:42:28.199Z,0.20
2023-03-07T23:44:55.115Z,0.20
2023-03-07T23:47:22.310Z,0.20
2023-03-07T23:49:49.003Z,0.20
2023-03-07T23:52:15.688Z,0.20
2023-03-07T23:54:45.134Z,0.30
2023-03-07T23:57:12.541Z,0.30
2023-03-07T23:59:42.137Z,0.20
